sensor_id;sensor_type;location;lat;lon;timestamp;temperature;humidity
54126;DHT22;40360;52.992;6.796;2023-05-07T00:01:33;12.90;99.90
54126;DHT22;40360;52.992;6.796;2023-05-07T00:03:59;12.90;99.90
54126;DHT22;40360;52.992;6.796;2023-05-07T00:06:24;12.80;99.90
54126;DHT22;40360;52.992;6.796;2023-05-07T00:08:52;12.80;99.90
54126;DHT22;40360;52.992;6.796;2023-05-07T00:11:17;12.80;99.90
54126;DHT22;40360;52.992;6.796;2023-05-07T00:13:47;12.80;99.90
54126;DHT22;40360;52.992;6.796;2023-05-07T00:16:12;12.80;99.90
54126;DHT22;40360;52.992;6.796;2023-05-07T00:18:38;12.80;99.90
54126;DHT22;40360;52.992;6.796;2023-05-07T00:21:04;12.70;99.90
54126;DHT22;40360;52.992;6.796;2023-05-07T00:23:29;12.70;99.90
54126;DHT22;40360;52.992;6.796;2023-05-07T00:25:55;12.70;99.90
54126;DHT22;40360;52.992;6.796;2023-05-07T00:28:21;12.70;99.90
54126;DHT22;40360;52.992;6.796;2023-05-07T00:30:47;12.70;99.90
54126;DHT22;40360;52.992;6.796;2023-05-07T00:33:12;12.70;99.90
54126;DHT22;40360;52.992;6.796;2023-05-07T00:35:38;12.60;99.90
54126;DHT22;40360;52.992;6.796;2023-05-07T00:38:03;12.60;99.90
54126;DHT22;40360;52.992;6.796;2023-05-07T00:40:29;12.60;99.90
54126;DHT22;40360;52.992;6.796;2023-05-07T00:42:55;12.60;99.90
54126;DHT22;40360;52.992;6.796;2023-05-07T00:45:26;12.50;99.90
54126;DHT22;40360;52.992;6.796;2023-05-07T00:47:57;12.70;99.90
54126;DHT22;40360;52.992;6.796;2023-05-07T00:50:23;12.60;99.90
54126;DHT22;40360;52.992;6.796;2023-05-07T00:52:49;12.50;99.90
54126;DHT22;40360;52.992;6.796;2023-05-07T00:55:14;12.50;99.90
54126;DHT22;40360;52.992;6.796;2023-05-07T00:57:41;12.50;99.90
54126;DHT22;40360;52.992;6.796;2023-05-07T01:00:08;12.60;99.90
54126;DHT22;40360;52.992;6.796;2023-05-07T01:02:35;12.40;99.90
54126;DHT22;40360;52.992;6.796;2023-05-07T01:05:02;12.40;99.90
54126;DHT22;40360;52.992;6.796;2023-05-07T01:07:29;12.40;99.90
54126;DHT22;40360;52.992;6.796;2023-05-07T01:09:56;12.30;99.90
54126;DHT22;40360;52.992;6.796;2023-05-07T01:12:22;12.30;99.90
54126;DHT22;40360;52.992;6.796;2023-05-07T01:14:52;12.30;99.90
54126;DHT22;40360;52.992;6.796;2023-05-07T01:17:17;12.30;99.90
54126;DHT22;40360;52.992;6.796;2023-05-07T01:19:43;12.20;99.90
54126;DHT22;40360;52.992;6.796;2023-05-07T01:22:10;12.20;99.90
54126;DHT22;40360;52.992;6.796;2023-05-07T01:24:37;12.20;99.90
54126;DHT22;40360;52.992;6.796;2023-05-07T01:27:03;12.10;99.90
54126;DHT22;40360;52.992;6.796;2023-05-07T01:29:29;12.10;99.90
54126;DHT22;40360;52.992;6.796;2023-05-07T01:32:00;12.10;99.90
54126;DHT22;40360;52.992;6.796;2023-05-07T01:34:28;12.10;99.90
54126;DHT22;40360;52.992;6.796;2023-05-07T01:36:56;12.10;99.90
54126;DHT22;40360;52.992;6.796;2023-05-07T01:39:27;12.00;99.90
54126;DHT22;40360;52.992;6.796;2023-05-07T01:41:57;12.00;99.90
54126;DHT22;40360;52.992;6.796;2023-05-07T01:44:24;12.00;99.90
54126;DHT22;40360;52.992;6.796;2023-05-07T01:46:51;12.00;99.90
54126;DHT22;40360;52.992;6.796;2023-05-07T01:49:17;11.90;99.90
54126;DHT22;40360;52.992;6.796;2023-05-07T01:51:43;11.90;99.90
54126;DHT22;40360;52.992;6.796;2023-05-07T01:54:09;11.90;99.90
54126;DHT22;40360;52.992;6.796;2023-05-07T01:56:35;11.90;99.90
54126;DHT22;40360;52.992;6.796;2023-05-07T01:59:01;11.80;99.90
54126;DHT22;40360;52.992;6.796;2023-05-07T02:01:27;11.90;99.90
54126;DHT22;40360;52.992;6.796;2023-05-07T02:03:53;11.80;99.90
54126;DHT22;40360;52.992;6.796;2023-05-07T02:06:19;11.80;99.90
54126;DHT22;40360;52.992;6.796;2023-05-07T02:08:45;11.70;99.90
54126;DHT22;40360;52.992;6.796;2023-05-07T02:11:11;11.80;99.90
54126;DHT22;40360;52.992;6.796;2023-05-07T02:13:37;11.70;99.90
54126;DHT22;40360;52.992;6.796;2023-05-07T02:16:03;11.80;99.90
54126;DHT22;40360;52.992;6.796;2023-05-07T02:18:29;11.60;99.90
54126;DHT22;40360;52.992;6.796;2023-05-07T02:20:54;11.60;99.90
54126;DHT22;40360;52.992;6.796;2023-05-07T02:23:20;11.60;99.90
54126;DHT22;40360;52.992;6.796;2023-05-07T02:25:45;11.60;99.90
54126;DHT22;40360;52.992;6.796;2023-05-07T02:28:11;11.50;99.90
54126;DHT22;40360;52.992;6.796;2023-05-07T02:30:38;11.50;99.90
54126;DHT22;40360;52.992;6.796;2023-05-07T02:33:03;11.50;99.90
54126;DHT22;40360;52.992;6.796;2023-05-07T02:35:29;11.50;99.90
54126;DHT22;40360;52.992;6.796;2023-05-07T02:37:54;11.40;99.90
54126;DHT22;40360;52.992;6.796;2023-05-07T02:40:20;11.50;99.90
54126;DHT22;40360;52.992;6.796;2023-05-07T02:42:46;11.40;99.90
54126;DHT22;40360;52.992;6.796;2023-05-07T02:45:11;11.40;99.90
54126;DHT22;40360;52.992;6.796;2023-05-07T02:47:37;11.40;99.90
54126;DHT22;40360;52.992;6.796;2023-05-07T02:50:03;11.40;99.90
54126;DHT22;40360;52.992;6.796;2023-05-07T02:52:29;11.40;99.90
54126;DHT22;40360;52.992;6.796;2023-05-07T02:54:54;11.40;99.90
54126;DHT22;40360;52.992;6.796;2023-05-07T02:57:20;11.40;99.90
54126;DHT22;40360;52.992;6.796;2023-05-07T02:59:46;11.40;99.90
54126;DHT22;40360;52.992;6.796;2023-05-07T03:02:11;11.40;99.90
54126;DHT22;40360;52.992;6.796;2023-05-07T03:04:38;11.40;99.90
54126;DHT22;40360;52.992;6.796;2023-05-07T03:07:04;11.40;99.90
54126;DHT22;40360;52.992;6.796;2023-05-07T03:09:29;11.30;99.90
54126;DHT22;40360;52.992;6.796;2023-05-07T03:11:56;11.30;99.90
54126;DHT22;40360;52.992;6.796;2023-05-07T03:14:22;11.40;99.90
54126;DHT22;40360;52.992;6.796;2023-05-07T03:16:48;11.30;99.90
54126;DHT22;40360;52.992;6.796;2023-05-07T03:19:14;11.30;99.90
54126;DHT22;40360;52.992;6.796;2023-05-07T03:21:40;11.40;99.90
54126;DHT22;40360;52.992;6.796;2023-05-07T03:24:05;11.30;99.90
54126;DHT22;40360;52.992;6.796;2023-05-07T03:26:31;11.30;99.90
54126;DHT22;40360;52.992;6.796;2023-05-07T03:28:56;11.30;99.90
54126;DHT22;40360;52.992;6.796;2023-05-07T03:31:22;11.20;99.90
54126;DHT22;40360;52.992;6.796;2023-05-07T03:33:55;11.20;99.90
54126;DHT22;40360;52.992;6.796;2023-05-07T03:36:21;11.20;99.90
54126;DHT22;40360;52.992;6.796;2023-05-07T03:38:48;11.20;99.90
54126;DHT22;40360;52.992;6.796;2023-05-07T03:41:13;11.20;99.90
54126;DHT22;40360;52.992;6.796;2023-05-07T03:43:39;11.20;99.90
54126;DHT22;40360;52.992;6.796;2023-05-07T03:46:08;11.20;99.90
54126;DHT22;40360;52.992;6.796;2023-05-07T03:48:34;11.20;99.90
54126;DHT22;40360;52.992;6.796;2023-05-07T03:50:59;11.20;99.90
54126;DHT22;40360;52.992;6.796;2023-05-07T03:53:25;11.20;99.90
54126;DHT22;40360;52.992;6.796;2023-05-07T03:55:51;11.20;99.90
54126;DHT22;40360;52.992;6.796;2023-05-07T03:58:16;11.20;99.90
54126;DHT22;40360;52.992;6.796;2023-05-07T04:00:42;11.20;99.90
54126;DHT22;40360;52.992;6.796;2023-05-07T04:03:08;11.10;99.90
54126;DHT22;40360;52.992;6.796;2023-05-07T04:05:34;11.10;99.90
54126;DHT22;40360;52.992;6.796;2023-05-07T04:08:00;11.10;99.90
54126;DHT22;40360;52.992;6.796;2023-05-07T04:10:26;11.10;99.90
54126;DHT22;40360;52.992;6.796;2023-05-07T04:12:51;11.10;99.90
54126;DHT22;40360;52.992;6.796;2023-05-07T04:15:17;11.10;99.90
54126;DHT22;40360;52.992;6.796;2023-05-07T04:17:42;11.10;99.90
54126;DHT22;40360;52.992;6.796;2023-05-07T04:20:15;11.10;99.90
54126;DHT22;40360;52.992;6.796;2023-05-07T04:22:41;11.10;99.90
54126;DHT22;40360;52.992;6.796;2023-05-07T04:25:07;11.10;99.90
54126;DHT22;40360;52.992;6.796;2023-05-07T04:27:35;11.10;99.90
54126;DHT22;40360;52.992;6.796;2023-05-07T04:30:01;11.10;99.90
54126;DHT22;40360;52.992;6.796;2023-05-07T04:32:26;11.10;99.90
54126;DHT22;40360;52.992;6.796;2023-05-07T04:34:54;11.10;99.90
54126;DHT22;40360;52.992;6.796;2023-05-07T04:37:21;11.10;99.90
54126;DHT22;40360;52.992;6.796;2023-05-07T04:39:46;11.10;99.90
54126;DHT22;40360;52.992;6.796;2023-05-07T04:42:16;11.00;99.90
54126;DHT22;40360;52.992;6.796;2023-05-07T04:44:42;11.00;99.90
54126;DHT22;40360;52.992;6.796;2023-05-07T04:47:08;11.10;99.90
54126;DHT22;40360;52.992;6.796;2023-05-07T04:49:34;11.00;99.90
54126;DHT22;40360;52.992;6.796;2023-05-07T04:51:59;11.00;99.90
54126;DHT22;40360;52.992;6.796;2023-05-07T04:54:25;11.10;99.90
54126;DHT22;40360;52.992;6.796;2023-05-07T04:56:51;11.10;99.90
54126;DHT22;40360;52.992;6.796;2023-05-07T04:59:16;11.10;99.90
54126;DHT22;40360;52.992;6.796;2023-05-07T05:01:42;11.10;99.90
54126;DHT22;40360;52.992;6.796;2023-05-07T05:04:07;11.10;99.90
54126;DHT22;40360;52.992;6.796;2023-05-07T05:06:33;11.10;99.90
54126;DHT22;40360;52.992;6.796;2023-05-07T05:08:58;11.10;99.90
54126;DHT22;40360;52.992;6.796;2023-05-07T05:11:24;11.20;99.90
54126;DHT22;40360;52.992;6.796;2023-05-07T05:13:50;11.20;99.90
54126;DHT22;40360;52.992;6.796;2023-05-07T05:16:16;11.20;99.90
54126;DHT22;40360;52.992;6.796;2023-05-07T05:18:41;11.20;99.90
54126;DHT22;40360;52.992;6.796;2023-05-07T05:21:07;11.10;99.90
54126;DHT22;40360;52.992;6.796;2023-05-07T05:23:32;11.20;99.90
54126;DHT22;40360;52.992;6.796;2023-05-07T05:25:58;11.20;99.90
54126;DHT22;40360;52.992;6.796;2023-05-07T05:28:24;11.40;99.90
54126;DHT22;40360;52.992;6.796;2023-05-07T05:30:50;11.20;99.90
54126;DHT22;40360;52.992;6.796;2023-05-07T05:33:15;11.20;99.90
54126;DHT22;40360;52.992;6.796;2023-05-07T05:35:42;11.20;99.90
54126;DHT22;40360;52.992;6.796;2023-05-07T05:38:07;11.20;99.90
54126;DHT22;40360;52.992;6.796;2023-05-07T05:40:33;11.20;99.90
54126;DHT22;40360;52.992;6.796;2023-05-07T05:42:59;11.20;99.90
54126;DHT22;40360;52.992;6.796;2023-05-07T06:01:49;11.30;99.90
54126;DHT22;40360;52.992;6.796;2023-05-07T06:04:16;11.30;99.90
54126;DHT22;40360;52.992;6.796;2023-05-07T06:06:41;11.40;99.90
54126;DHT22;40360;52.992;6.796;2023-05-07T06:09:07;11.40;99.90
54126;DHT22;40360;52.992;6.796;2023-05-07T06:11:32;11.40;99.90
54126;DHT22;40360;52.992;6.796;2023-05-07T06:13:58;11.50;99.90
54126;DHT22;40360;52.992;6.796;2023-05-07T06:16:25;11.50;99.90
54126;DHT22;40360;52.992;6.796;2023-05-07T06:18:50;11.50;99.90
54126;DHT22;40360;52.992;6.796;2023-05-07T06:21:16;11.60;99.90
54126;DHT22;40360;52.992;6.796;2023-05-07T06:23:41;11.70;99.90
54126;DHT22;40360;52.992;6.796;2023-05-07T06:26:07;11.70;99.90
54126;DHT22;40360;52.992;6.796;2023-05-07T06:28:33;11.70;99.90
54126;DHT22;40360;52.992;6.796;2023-05-07T06:31:15;11.70;99.90
54126;DHT22;40360;52.992;6.796;2023-05-07T06:33:42;11.70;99.90
54126;DHT22;40360;52.992;6.796;2023-05-07T06:36:08;11.70;99.90
54126;DHT22;40360;52.992;6.796;2023-05-07T06:38:34;11.70;99.90
54126;DHT22;40360;52.992;6.796;2023-05-07T06:40:59;11.70;99.90
54126;DHT22;40360;52.992;6.796;2023-05-07T06:43:25;11.70;99.90
54126;DHT22;40360;52.992;6.796;2023-05-07T06:45:50;11.70;99.90
54126;DHT22;40360;52.992;6.796;2023-05-07T06:48:16;11.60;99.90
54126;DHT22;40360;52.992;6.796;2023-05-07T06:50:42;11.60;99.90
54126;DHT22;40360;52.992;6.796;2023-05-07T06:53:07;11.60;99.90
54126;DHT22;40360;52.992;6.796;2023-05-07T06:55:33;11.60;99.90
54126;DHT22;40360;52.992;6.796;2023-05-07T06:57:59;11.60;99.90
54126;DHT22;40360;52.992;6.796;2023-05-07T07:00:30;11.50;99.90
54126;DHT22;40360;52.992;6.796;2023-05-07T07:02:56;11.60;99.90
54126;DHT22;40360;52.992;6.796;2023-05-07T07:05:22;11.60;99.90
54126;DHT22;40360;52.992;6.796;2023-05-07T07:07:48;11.60;99.90
54126;DHT22;40360;52.992;6.796;2023-05-07T07:10:21;11.60;99.90
54126;DHT22;40360;52.992;6.796;2023-05-07T07:12:47;11.70;99.90
54126;DHT22;40360;52.992;6.796;2023-05-07T07:15:13;11.70;99.90
54126;DHT22;40360;52.992;6.796;2023-05-07T07:17:39;11.70;99.90
54126;DHT22;40360;52.992;6.796;2023-05-07T07:20:05;11.80;99.90
54126;DHT22;40360;52.992;6.796;2023-05-07T07:22:31;11.90;99.90
54126;DHT22;40360;52.992;6.796;2023-05-07T07:24:57;11.90;99.90
54126;DHT22;40360;52.992;6.796;2023-05-07T07:27:22;12.00;99.90
54126;DHT22;40360;52.992;6.796;2023-05-07T07:29:48;12.10;99.90
54126;DHT22;40360;52.992;6.796;2023-05-07T07:32:14;12.20;99.90
54126;DHT22;40360;52.992;6.796;2023-05-07T07:34:39;12.30;99.90
54126;DHT22;40360;52.992;6.796;2023-05-07T07:37:05;12.40;99.90
54126;DHT22;40360;52.992;6.796;2023-05-07T07:39:34;12.50;99.90
54126;DHT22;40360;52.992;6.796;2023-05-07T07:42:00;12.50;99.90
54126;DHT22;40360;52.992;6.796;2023-05-07T07:44:27;12.50;99.90
54126;DHT22;40360;52.992;6.796;2023-05-07T07:46:53;12.50;99.90
54126;DHT22;40360;52.992;6.796;2023-05-07T07:49:19;12.60;99.90
54126;DHT22;40360;52.992;6.796;2023-05-07T07:51:44;12.50;99.90
54126;DHT22;40360;52.992;6.796;2023-05-07T07:54:10;12.50;99.90
54126;DHT22;40360;52.992;6.796;2023-05-07T07:56:36;12.40;99.90
54126;DHT22;40360;52.992;6.796;2023-05-07T07:59:02;12.40;99.90
54126;DHT22;40360;52.992;6.796;2023-05-07T08:01:30;12.40;99.90
54126;DHT22;40360;52.992;6.796;2023-05-07T08:03:55;12.50;99.90
54126;DHT22;40360;52.992;6.796;2023-05-07T08:06:23;12.50;99.90
54126;DHT22;40360;52.992;6.796;2023-05-07T08:08:48;12.60;99.90
54126;DHT22;40360;52.992;6.796;2023-05-07T08:11:14;12.60;99.90
54126;DHT22;40360;52.992;6.796;2023-05-07T08:13:40;12.60;99.90
54126;DHT22;40360;52.992;6.796;2023-05-07T08:16:05;12.60;99.90
54126;DHT22;40360;52.992;6.796;2023-05-07T08:18:31;12.70;99.90
54126;DHT22;40360;52.992;6.796;2023-05-07T08:20:57;12.80;99.90
54126;DHT22;40360;52.992;6.796;2023-05-07T08:23:22;12.90;99.90
54126;DHT22;40360;52.992;6.796;2023-05-07T08:25:49;12.90;99.90
54126;DHT22;40360;52.992;6.796;2023-05-07T08:28:15;13.00;99.90
54126;DHT22;40360;52.992;6.796;2023-05-07T08:30:41;13.00;99.90
54126;DHT22;40360;52.992;6.796;2023-05-07T08:33:08;13.00;99.90
54126;DHT22;40360;52.992;6.796;2023-05-07T08:35:35;13.00;99.90
54126;DHT22;40360;52.992;6.796;2023-05-07T08:38:00;13.00;99.90
54126;DHT22;40360;52.992;6.796;2023-05-07T08:40:26;13.10;99.90
54126;DHT22;40360;52.992;6.796;2023-05-07T08:42:53;13.10;99.90
54126;DHT22;40360;52.992;6.796;2023-05-07T08:45:19;13.20;99.90
54126;DHT22;40360;52.992;6.796;2023-05-07T08:47:52;13.20;99.90
54126;DHT22;40360;52.992;6.796;2023-05-07T08:50:20;13.30;99.90
54126;DHT22;40360;52.992;6.796;2023-05-07T08:52:47;13.40;99.90
54126;DHT22;40360;52.992;6.796;2023-05-07T08:55:13;13.60;99.90
54126;DHT22;40360;52.992;6.796;2023-05-07T08:57:39;13.70;99.90
54126;DHT22;40360;52.992;6.796;2023-05-07T09:00:05;13.80;99.90
54126;DHT22;40360;52.992;6.796;2023-05-07T09:02:33;14.00;99.90
54126;DHT22;40360;52.992;6.796;2023-05-07T09:04:58;14.00;99.90
54126;DHT22;40360;52.992;6.796;2023-05-07T09:07:25;14.10;99.90
54126;DHT22;40360;52.992;6.796;2023-05-07T09:09:51;14.20;99.90
54126;DHT22;40360;52.992;6.796;2023-05-07T09:12:18;14.20;99.90
54126;DHT22;40360;52.992;6.796;2023-05-07T09:14:44;14.30;99.90
54126;DHT22;40360;52.992;6.796;2023-05-07T09:17:11;14.40;99.90
54126;DHT22;40360;52.992;6.796;2023-05-07T09:19:36;14.40;99.90
54126;DHT22;40360;52.992;6.796;2023-05-07T09:22:04;14.60;99.90
54126;DHT22;40360;52.992;6.796;2023-05-07T09:24:30;14.60;99.90
54126;DHT22;40360;52.992;6.796;2023-05-07T09:27:00;14.70;99.90
54126;DHT22;40360;52.992;6.796;2023-05-07T09:29:26;14.80;99.90
54126;DHT22;40360;52.992;6.796;2023-05-07T09:31:54;14.90;99.90
54126;DHT22;40360;52.992;6.796;2023-05-07T09:34:20;14.90;99.90
54126;DHT22;40360;52.992;6.796;2023-05-07T09:36:46;14.90;99.90
54126;DHT22;40360;52.992;6.796;2023-05-07T09:39:13;15.00;99.90
54126;DHT22;40360;52.992;6.796;2023-05-07T09:41:48;15.10;99.90
54126;DHT22;40360;52.992;6.796;2023-05-07T09:44:14;15.20;99.90
54126;DHT22;40360;52.992;6.796;2023-05-07T09:46:42;15.30;99.90
54126;DHT22;40360;52.992;6.796;2023-05-07T09:49:11;15.50;99.90
54126;DHT22;40360;52.992;6.796;2023-05-07T09:51:43;15.50;99.90
54126;DHT22;40360;52.992;6.796;2023-05-07T09:54:10;15.60;99.90
54126;DHT22;40360;52.992;6.796;2023-05-07T09:56:36;15.60;99.90
54126;DHT22;40360;52.992;6.796;2023-05-07T09:59:03;15.60;99.90
54126;DHT22;40360;52.992;6.796;2023-05-07T10:01:31;15.60;99.90
54126;DHT22;40360;52.992;6.796;2023-05-07T10:03:57;15.60;99.90
54126;DHT22;40360;52.992;6.796;2023-05-07T10:06:24;15.70;99.90
54126;DHT22;40360;52.992;6.796;2023-05-07T10:08:52;15.80;99.90
54126;DHT22;40360;52.992;6.796;2023-05-07T10:11:18;15.90;99.90
54126;DHT22;40360;52.992;6.796;2023-05-07T10:13:46;16.00;99.90
54126;DHT22;40360;52.992;6.796;2023-05-07T10:16:13;16.20;99.90
54126;DHT22;40360;52.992;6.796;2023-05-07T10:18:41;16.30;99.90
54126;DHT22;40360;52.992;6.796;2023-05-07T10:21:16;16.50;99.90
54126;DHT22;40360;52.992;6.796;2023-05-07T10:23:45;16.70;99.90
54126;DHT22;40360;52.992;6.796;2023-05-07T10:26:12;17.00;99.90
54126;DHT22;40360;52.992;6.796;2023-05-07T10:28:40;17.20;99.90
54126;DHT22;40360;52.992;6.796;2023-05-07T10:33:54;17.50;99.90
54126;DHT22;40360;52.992;6.796;2023-05-07T10:36:22;17.50;99.90
54126;DHT22;40360;52.992;6.796;2023-05-07T10:38:49;17.50;99.90
54126;DHT22;40360;52.992;6.796;2023-05-07T10:41:15;17.50;99.90
54126;DHT22;40360;52.992;6.796;2023-05-07T10:43:43;17.40;99.90
54126;DHT22;40360;52.992;6.796;2023-05-07T10:51:34;17.70;99.90
54126;DHT22;40360;52.992;6.796;2023-05-07T10:56:36;17.90;99.90
54126;DHT22;40360;52.992;6.796;2023-05-07T11:01:58;18.00;99.90
54126;DHT22;40360;52.992;6.796;2023-05-07T11:04:24;18.20;99.90
54126;DHT22;40360;52.992;6.796;2023-05-07T11:15:12;18.50;99.90
54126;DHT22;40360;52.992;6.796;2023-05-07T11:17:55;18.60;99.90
54126;DHT22;40360;52.992;6.796;2023-05-07T11:20:48;18.80;99.90
54126;DHT22;40360;52.992;6.796;2023-05-07T11:26:04;18.80;99.90
54126;DHT22;40360;52.992;6.796;2023-05-07T11:28:32;18.80;99.90
54126;DHT22;40360;52.992;6.796;2023-05-07T11:31:02;18.80;99.90
54126;DHT22;40360;52.992;6.796;2023-05-07T11:33:29;18.70;99.90
54126;DHT22;40360;52.992;6.796;2023-05-07T11:35:55;18.60;99.90
54126;DHT22;40360;52.992;6.796;2023-05-07T11:38:21;18.60;99.90
54126;DHT22;40360;52.992;6.796;2023-05-07T11:40:57;18.50;99.90
54126;DHT22;40360;52.992;6.796;2023-05-07T11:43:24;18.50;99.90
54126;DHT22;40360;52.992;6.796;2023-05-07T11:45:50;18.40;99.90
54126;DHT22;40360;52.992;6.796;2023-05-07T11:48:16;18.40;99.90
54126;DHT22;40360;52.992;6.796;2023-05-07T11:51:01;18.40;99.90
54126;DHT22;40360;52.992;6.796;2023-05-07T11:53:35;18.40;99.90
54126;DHT22;40360;52.992;6.796;2023-05-07T11:56:06;18.50;99.90
54126;DHT22;40360;52.992;6.796;2023-05-07T11:58:32;18.50;99.90
54126;DHT22;40360;52.992;6.796;2023-05-07T12:00:58;18.70;99.90
54126;DHT22;40360;52.992;6.796;2023-05-07T12:03:23;18.70;99.90
54126;DHT22;40360;52.992;6.796;2023-05-07T12:05:49;18.80;99.90
54126;DHT22;40360;52.992;6.796;2023-05-07T12:08:18;18.80;99.90
54126;DHT22;40360;52.992;6.796;2023-05-07T12:10:47;18.80;99.90
54126;DHT22;40360;52.992;6.796;2023-05-07T12:13:20;18.70;99.90
54126;DHT22;40360;52.992;6.796;2023-05-07T12:15:46;18.70;99.90
54126;DHT22;40360;52.992;6.796;2023-05-07T12:18:12;18.60;99.90
54126;DHT22;40360;52.992;6.796;2023-05-07T12:20:39;18.60;99.90
54126;DHT22;40360;52.992;6.796;2023-05-07T12:23:05;18.70;99.90
54126;DHT22;40360;52.992;6.796;2023-05-07T12:25:38;18.70;99.90
54126;DHT22;40360;52.992;6.796;2023-05-07T12:28:04;18.80;99.90
54126;DHT22;40360;52.992;6.796;2023-05-07T12:30:37;18.90;99.90
54126;DHT22;40360;52.992;6.796;2023-05-07T12:33:03;18.90;99.90
54126;DHT22;40360;52.992;6.796;2023-05-07T12:35:30;19.00;99.90
54126;DHT22;40360;52.992;6.796;2023-05-07T12:37:57;19.10;99.90
54126;DHT22;40360;52.992;6.796;2023-05-07T12:40:34;19.10;99.90
54126;DHT22;40360;52.992;6.796;2023-05-07T12:43:00;19.10;99.90
54126;DHT22;40360;52.992;6.796;2023-05-07T12:45:26;19.20;99.90
54126;DHT22;40360;52.992;6.796;2023-05-07T12:47:52;19.30;99.90
54126;DHT22;40360;52.992;6.796;2023-05-07T12:50:17;19.40;99.90
54126;DHT22;40360;52.992;6.796;2023-05-07T12:52:45;19.60;99.90
54126;DHT22;40360;52.992;6.796;2023-05-07T12:55:13;19.70;99.90
54126;DHT22;40360;52.992;6.796;2023-05-07T12:57:43;19.90;99.90
54126;DHT22;40360;52.992;6.796;2023-05-07T13:00:11;20.10;99.90
54126;DHT22;40360;52.992;6.796;2023-05-07T13:02:39;20.20;99.90
54126;DHT22;40360;52.992;6.796;2023-05-07T13:05:05;20.40;99.90
54126;DHT22;40360;52.992;6.796;2023-05-07T13:07:31;20.70;99.90
54126;DHT22;40360;52.992;6.796;2023-05-07T13:09:57;20.80;99.90
54126;DHT22;40360;52.992;6.796;2023-05-07T13:12:22;21.10;99.90
54126;DHT22;40360;52.992;6.796;2023-05-07T13:14:48;21.30;99.90
54126;DHT22;40360;52.992;6.796;2023-05-07T13:17:13;21.70;99.90
54126;DHT22;40360;52.992;6.796;2023-05-07T13:19:39;22.00;99.90
54126;DHT22;40360;52.992;6.796;2023-05-07T13:22:05;22.00;99.90
54126;DHT22;40360;52.992;6.796;2023-05-07T13:24:30;21.70;99.90
54126;DHT22;40360;52.992;6.796;2023-05-07T13:26:56;21.60;99.90
54126;DHT22;40360;52.992;6.796;2023-05-07T13:29:21;21.40;99.90
54126;DHT22;40360;52.992;6.796;2023-05-07T13:31:57;21.30;99.90
54126;DHT22;40360;52.992;6.796;2023-05-07T13:34:22;21.20;99.90
54126;DHT22;40360;52.992;6.796;2023-05-07T13:36:48;21.20;99.90
54126;DHT22;40360;52.992;6.796;2023-05-07T13:39:14;21.20;99.90
54126;DHT22;40360;52.992;6.796;2023-05-07T13:41:39;21.20;99.90
54126;DHT22;40360;52.992;6.796;2023-05-07T13:44:05;21.10;99.90
54126;DHT22;40360;52.992;6.796;2023-05-07T13:46:30;21.10;99.90
54126;DHT22;40360;52.992;6.796;2023-05-07T13:48:56;21.10;99.90
54126;DHT22;40360;52.992;6.796;2023-05-07T13:51:22;21.10;99.90
54126;DHT22;40360;52.992;6.796;2023-05-07T13:53:48;21.20;99.90
54126;DHT22;40360;52.992;6.796;2023-05-07T13:56:14;21.10;99.90
54126;DHT22;40360;52.992;6.796;2023-05-07T13:58:40;21.10;99.90
54126;DHT22;40360;52.992;6.796;2023-05-07T14:01:06;21.00;99.90
54126;DHT22;40360;52.992;6.796;2023-05-07T14:03:31;21.00;99.90
54126;DHT22;40360;52.992;6.796;2023-05-07T14:05:59;20.90;99.90
54126;DHT22;40360;52.992;6.796;2023-05-07T14:08:27;21.00;99.90
54126;DHT22;40360;52.992;6.796;2023-05-07T14:10:53;21.30;99.90
54126;DHT22;40360;52.992;6.796;2023-05-07T14:13:18;21.50;99.90
54126;DHT22;40360;52.992;6.796;2023-05-07T14:15:44;21.70;99.90
54126;DHT22;40360;52.992;6.796;2023-05-07T14:18:15;21.80;99.90
54126;DHT22;40360;52.992;6.796;2023-05-07T14:20:40;22.00;99.90
54126;DHT22;40360;52.992;6.796;2023-05-07T14:23:06;22.20;99.90
54126;DHT22;40360;52.992;6.796;2023-05-07T14:25:32;22.40;99.90
54126;DHT22;40360;52.992;6.796;2023-05-07T14:27:57;22.50;99.90
54126;DHT22;40360;52.992;6.796;2023-05-07T14:30:23;22.40;99.90
54126;DHT22;40360;52.992;6.796;2023-05-07T14:32:50;22.20;99.90
54126;DHT22;40360;52.992;6.796;2023-05-07T14:35:16;21.90;99.90
54126;DHT22;40360;52.992;6.796;2023-05-07T14:37:42;21.60;99.90
54126;DHT22;40360;52.992;6.796;2023-05-07T14:40:08;21.30;99.90
54126;DHT22;40360;52.992;6.796;2023-05-07T14:42:34;21.20;99.90
54126;DHT22;40360;52.992;6.796;2023-05-07T14:45:00;21.00;99.90
54126;DHT22;40360;52.992;6.796;2023-05-07T14:47:26;20.80;99.90
54126;DHT22;40360;52.992;6.796;2023-05-07T14:49:51;20.60;99.90
54126;DHT22;40360;52.992;6.796;2023-05-07T14:52:18;20.50;99.90
54126;DHT22;40360;52.992;6.796;2023-05-07T14:54:44;20.30;99.90
54126;DHT22;40360;52.992;6.796;2023-05-07T14:57:10;20.20;99.90
54126;DHT22;40360;52.992;6.796;2023-05-07T14:59:38;20.00;99.90
54126;DHT22;40360;52.992;6.796;2023-05-07T15:02:05;19.90;99.90
54126;DHT22;40360;52.992;6.796;2023-05-07T15:04:33;19.80;99.90
54126;DHT22;40360;52.992;6.796;2023-05-07T15:06:59;19.60;99.90
54126;DHT22;40360;52.992;6.796;2023-05-07T15:09:25;19.50;99.90
54126;DHT22;40360;52.992;6.796;2023-05-07T15:11:51;19.40;99.90
54126;DHT22;40360;52.992;6.796;2023-05-07T15:14:16;19.40;99.90
54126;DHT22;40360;52.992;6.796;2023-05-07T15:16:42;19.40;99.90
54126;DHT22;40360;52.992;6.796;2023-05-07T15:19:08;19.30;99.90
54126;DHT22;40360;52.992;6.796;2023-05-07T15:21:33;19.30;99.90
54126;DHT22;40360;52.992;6.796;2023-05-07T15:24:01;19.20;99.90
54126;DHT22;40360;52.992;6.796;2023-05-07T15:26:27;19.10;99.90
54126;DHT22;40360;52.992;6.796;2023-05-07T15:28:55;19.10;99.90
54126;DHT22;40360;52.992;6.796;2023-05-07T15:31:25;19.10;99.90
54126;DHT22;40360;52.992;6.796;2023-05-07T15:33:50;19.00;99.90
54126;DHT22;40360;52.992;6.796;2023-05-07T15:36:17;19.10;99.90
54126;DHT22;40360;52.992;6.796;2023-05-07T15:38:43;19.10;99.90
54126;DHT22;40360;52.992;6.796;2023-05-07T15:41:09;19.10;99.90
54126;DHT22;40360;52.992;6.796;2023-05-07T15:43:44;19.20;99.90
54126;DHT22;40360;52.992;6.796;2023-05-07T15:46:10;19.40;99.90
54126;DHT22;40360;52.992;6.796;2023-05-07T15:48:36;19.50;99.90
54126;DHT22;40360;52.992;6.796;2023-05-07T15:51:02;19.60;99.90
54126;DHT22;40360;52.992;6.796;2023-05-07T15:53:28;19.90;99.90
54126;DHT22;40360;52.992;6.796;2023-05-07T15:55:53;20.30;99.90
54126;DHT22;40360;52.992;6.796;2023-05-07T15:58:20;20.60;99.90
54126;DHT22;40360;52.992;6.796;2023-05-07T16:00:49;20.40;99.90
54126;DHT22;40360;52.992;6.796;2023-05-07T16:03:14;20.40;99.90
54126;DHT22;40360;52.992;6.796;2023-05-07T16:05:40;20.60;99.90
54126;DHT22;40360;52.992;6.796;2023-05-07T16:08:06;20.50;99.90